createdAt,value
2019-03-16T00:00:06.938Z,89
2019-03-16T00:15:08.228Z,89.8
2019-03-16T00:30:12.487Z,89.5
2019-03-16T00:47:21.303Z,88.7
2019-03-16T01:00:03.733Z,88.9
2019-03-16T01:15:08.286Z,89.1
2019-03-16T01:32:18.497Z,88.7
2019-03-16T01:45:08.543Z,89.8
2019-03-16T02:00:03.521Z,89.6
2019-03-16T02:19:28.734Z,90.1
2019-03-16T02:32:16.892Z,89.1
2019-03-16T02:45:05.783Z,89.5
2019-03-16T03:00:12.921Z,88.9
2019-03-16T03:17:20.249Z,87.5
2019-03-16T03:32:15.180Z,88
2019-03-16T03:45:11.739Z,86.9
2019-03-16T04:02:21.510Z,86.9
2019-03-16T04:15:11.907Z,86.1
2019-03-16T04:30:06.987Z,85.9
2019-03-16T04:45:05.453Z,86.1
2019-03-16T05:00:10.185Z,85
2019-03-16T05:17:16.869Z,84.8
2019-03-16T05:30:07.611Z,84.5
2019-03-16T05:45:12.545Z,84.3
2019-03-16T06:00:12.330Z,83.5
2019-03-16T06:15:09.959Z,83.4
2019-03-16T06:30:08.131Z,82.7
2019-03-16T06:45:10.573Z,82.2
2019-03-16T07:00:06.365Z,82.3
2019-03-16T07:15:12.759Z,80.4
2019-03-16T07:30:07.849Z,78.6
2019-03-16T07:45:13.247Z,78.1
2019-03-16T08:00:06.767Z,75.9
2019-03-16T08:15:11.349Z,76.5
2019-03-16T08:32:21.182Z,74.2
2019-03-16T08:47:16.159Z,72.5
2019-03-16T09:02:15.235Z,72.5
2019-03-16T09:15:05.725Z,73.5
2019-03-16T09:30:05.754Z,70.9
2019-03-16T09:45:05.814Z,70.4
2019-03-16T10:00:05.842Z,68.3
2019-03-16T10:15:05.885Z,65.3
2019-03-16T10:30:05.914Z,65.1
2019-03-16T10:45:05.973Z,64.7
2019-03-16T11:02:16.001Z,64.6
2019-03-16T11:15:05.538Z,64.6
2019-03-16T11:30:10.158Z,63.6
2019-03-16T11:47:23.473Z,62.9
2019-03-16T12:00:06.855Z,65
2019-03-16T12:15:09.829Z,60.2
2019-03-16T12:30:09.353Z,58.9
2019-03-16T12:45:05.282Z,55.4
2019-03-16T13:00:03.907Z,52.6
2019-03-16T13:15:09.706Z,53.4
2019-03-16T13:30:09.608Z,48.8
2019-03-16T13:45:11.086Z,50.4
2019-03-16T14:00:12.850Z,45.4
2019-03-16T14:15:04.410Z,42.7
2019-03-16T14:30:07.717Z,41.3
2019-03-16T14:45:12.916Z,43.4
2019-03-16T15:00:05.984Z,38.2
2019-03-16T15:15:07.875Z,44.1
2019-03-16T15:30:11.838Z,48.5
2019-03-16T15:45:12.636Z,47.2
2019-03-16T16:00:04.731Z,49.4
2019-03-16T16:15:04.793Z,51.1
2019-03-16T16:30:07.538Z,51.6
2019-03-16T16:45:12.488Z,48.7
2019-03-16T17:00:04.321Z,50.6
2019-03-16T17:15:07.061Z,51.5
2019-03-16T17:30:06.405Z,50.5
2019-03-16T17:45:11.759Z,52.6
2019-03-16T18:00:12.678Z,54.8
2019-03-16T18:15:04.610Z,56.5
2019-03-16T18:30:09.306Z,56.8
2019-03-16T18:45:05.566Z,57.8
2019-03-16T19:00:08.176Z,59.5
2019-03-16T19:15:10.865Z,59.2
2019-03-16T19:30:04.062Z,59.1
2019-03-16T19:45:07.759Z,58.3
2019-03-16T20:00:06.942Z,59.1
2019-03-16T20:15:07.559Z,59.1
2019-03-16T20:30:13.097Z,58.6
2019-03-16T20:45:09.270Z,58
2019-03-16T21:00:05.097Z,54.5
2019-03-16T21:15:07.328Z,53.6
2019-03-16T21:30:08.510Z,47.7
2019-03-16T21:45:09.144Z,46.5
2019-03-16T22:00:11.848Z,46.2
2019-03-16T22:15:06.305Z,45.5
2019-03-16T22:30:12.226Z,45
2019-03-16T22:45:05.859Z,49
2019-03-16T23:00:12.486Z,47.1
2019-03-16T23:15:03.143Z,44.6
2019-03-16T23:30:11.791Z,42.8
2019-03-16T23:45:09.113Z,35.7
